Time;durP1;ratioP1;P1;durP2;ratioP2;P2;SDS_P1;SDS_P2;PMS_P1;PMS_P2;Temp;Humidity;BMP_temperature;BMP_pressure;BME280_temperature;BME280_humidity;BME280_pressure;Samples;Min_cycle;Max_cycle;Signal;HPM_P1;HPM_P2
2023/09/05 00:04:24;;;;;;;3.63;3.00;;;19.00;87.80;;;;;;20829435;28;20205;-71
2023/09/05 00:14:26;;;;;;;6.43;2.93;;;19.00;88.80;;;;;;20829612;28;20240;-76
2023/09/05 00:24:38;;;;;;;4.03;2.80;;;18.90;89.80;;;;;;20828780;28;20296;-76
2023/09/05 00:34:40;;;;;;;4.20;3.07;;;18.70;90.20;;;;;;20828344;28;20247;-74
2023/09/05 00:44:44;;;;;;;5.10;3.03;;;18.70;90.60;;;;;;20828268;28;20211;-74
2023/09/05 00:54:46;;;;;;;5.13;2.80;;;18.60;90.90;;;;;;20792861;28;20608;-75
2023/09/05 01:04:47;;;;;;;7.40;3.10;;;18.40;91.20;;;;;;20759317;28;20221;-75
2023/09/05 01:14:49;;;;;;;4.43;3.17;;;18.20;91.90;;;;;;20760033;28;20241;-75
2023/09/05 01:24:51;;;;;;;10.40;3.43;;;18.10;92.10;;;;;;20758947;28;20236;-76
2023/09/05 01:34:53;;;;;;;5.03;3.03;;;18.00;92.70;;;;;;20757973;28;20240;-75
2023/09/05 01:44:55;;;;;;;4.63;3.27;;;18.00;93.10;;;;;;20740270;28;20234;-74
2023/09/05 01:54:56;;;;;;;10.50;3.73;;;17.90;93.20;;;;;;20780272;28;20338;-74
2023/09/05 02:04:58;;;;;;;5.77;3.27;;;17.70;93.60;;;;;;20837556;28;20678;-75
2023/09/05 02:15:00;;;;;;;7.97;3.43;;;17.70;94.00;;;;;;20837002;28;20235;-73
2023/09/05 02:25:02;;;;;;;5.70;3.23;;;17.50;94.30;;;;;;20835945;28;20216;-71
2023/09/05 02:35:05;;;;;;;5.20;3.03;;;17.40;94.70;;;;;;20835135;28;20580;-72
2023/09/05 02:45:08;;;;;;;9.20;4.40;;;17.50;95.00;;;;;;20793800;28;20220;-72
2023/09/05 02:55:09;;;;;;;8.40;3.50;;;17.40;95.20;;;;;;20801866;28;20239;-75
2023/09/05 03:05:13;;;;;;;6.30;3.17;;;17.30;95.70;;;;;;20834193;28;20268;-73
2023/09/05 03:15:18;;;;;;;7.53;3.30;;;17.30;95.70;;;;;;20832854;28;20702;-72
2023/09/05 03:25:20;;;;;;;3.97;2.87;;;17.20;96.00;;;;;;20831075;28;20205;-72
2023/09/05 03:35:21;;;;;;;4.77;3.03;;;17.00;96.10;;;;;;20831084;28;20323;-74
2023/09/05 03:45:23;;;;;;;5.17;3.03;;;17.00;96.40;;;;;;20830643;28;20203;-72
2023/09/05 03:55:25;;;;;;;5.50;3.50;;;17.00;96.50;;;;;;20786546;28;20249;-73
2023/09/05 04:05:27;;;;;;;9.60;4.03;;;16.90;96.80;;;;;;20699307;28;20213;-73
2023/09/05 04:15:29;;;;;;;9.80;5.10;;;16.70;97.00;;;;;;20666592;28;20336;-73
2023/09/05 04:25:32;;;;;;;4.77;3.43;;;16.70;97.20;;;;;;20666081;28;20219;-72
2023/09/05 04:35:38;;;;;;;5.23;3.40;;;16.60;97.40;;;;;;20673602;28;20296;-73
2023/09/05 04:45:39;;;;;;;7.77;3.60;;;16.60;97.50;;;;;;20680779;28;20210;-72
2023/09/05 04:55:44;;;;;;;6.73;3.10;;;16.70;97.80;;;;;;20787482;28;20240;-73
2023/09/05 05:05:48;;;;;;;6.80;3.53;;;16.70;97.80;;;;;;20842420;28;20211;-72
2023/09/05 05:15:50;;;;;;;12.03;3.80;;;16.70;97.70;;;;;;20841396;28;20266;-72
2023/09/05 05:25:52;;;;;;;7.67;4.40;;;16.70;97.80;;;;;;20840886;28;20243;-72
2023/09/05 05:35:54;;;;;;;6.27;3.50;;;16.90;98.10;;;;;;20839792;28;20244;-71
2023/09/05 05:45:56;;;;;;;7.83;4.37;;;17.10;98.00;;;;;;20838750;28;20209;-71
2023/09/05 05:55:58;;;;;;;10.40;4.17;;;17.20;98.10;;;;;;20803675;28;20315;-69
2023/09/05 06:06:01;;;;;;;12.60;4.03;;;17.50;98.00;;;;;;20804023;28;20216;-70
2023/09/05 06:16:03;;;;;;;13.93;4.20;;;17.70;97.60;;;;;;20753559;28;20235;-70
2023/09/05 06:26:04;;;;;;;18.60;4.40;;;18.00;97.40;;;;;;20754417;28;20208;-70
2023/09/05 06:36:07;;;;;;;7.70;3.53;;;18.20;97.10;;;;;;20753380;28;20237;-70
2023/09/05 06:46:09;;;;;;;7.67;3.40;;;18.50;96.70;;;;;;20800763;28;20248;-74
2023/09/05 06:56:11;;;;;;;7.07;2.90;;;18.80;95.90;;;;;;20768130;28;20276;-76
2023/09/05 07:06:14;;;;;;;4.57;3.00;;;19.30;95.10;;;;;;20814616;28;20213;-76
2023/09/05 07:16:16;;;;;;;3.57;2.70;;;19.60;94.20;;;;;;20713218;28;20347;-73
2023/09/05 07:26:18;;;;;;;3.63;2.70;;;19.90;93.30;;;;;;20688563;28;20295;-70
2023/09/05 07:36:20;;;;;;;3.27;2.50;;;20.20;92.60;;;;;;20700599;28;20237;-69
2023/09/05 07:46:22;;;;;;;3.60;2.60;;;20.50;92.00;;;;;;20667358;28;20202;-69
2023/09/05 07:56:24;;;;;;;2.87;2.60;;;20.80;91.30;;;;;;20738590;28;20251;-71
2023/09/05 08:06:26;;;;;;;5.77;2.73;;;21.10;90.60;;;;;;20788347;28;20644;-70
2023/09/05 08:16:29;;;;;;;7.83;2.80;;;21.20;90.00;;;;;;20815374;28;20296;-74
2023/09/05 08:26:33;;;;;;;3.50;2.50;;;21.50;88.80;;;;;;20763313;28;20236;-74
2023/09/05 08:36:35;;;;;;;4.40;3.70;;;21.80;87.70;;;;;;20817139;28;20239;-74
2023/09/05 08:46:39;;;;;;;4.73;2.43;;;22.00;86.20;;;;;;20843599;28;20637;-77
2023/09/05 08:56:41;;;;;;;2.30;2.10;;;22.20;84.50;;;;;;20842980;28;20648;-74
2023/09/05 09:06:44;;;;;;;4.73;2.60;;;22.40;83.10;;;;;;20820119;28;20613;-79
2023/09/05 09:16:46;;;;;;;3.90;2.40;;;22.60;81.80;;;;;;20766813;28;20319;-77
2023/09/05 09:26:48;;;;;;;3.40;2.30;;;22.70;80.90;;;;;;20790296;28;20221;-72
2023/09/05 09:36:53;;;;;;;2.07;1.87;;;22.90;78.70;;;;;;20757822;28;20233;-72
2023/09/05 09:46:57;;;;;;;3.17;2.10;;;23.10;76.50;;;;;;20757041;28;20727;-72
2023/09/05 09:57:04;;;;;;;3.83;1.93;;;23.20;74.40;;;;;;20756565;28;20657;-72
2023/09/05 10:07:07;;;;;;;5.17;1.90;;;23.50;73.40;;;;;;20755528;28;20268;-72
2023/09/05 10:17:10;;;;;;;3.57;2.40;;;23.60;72.20;;;;;;20754794;28;20319;-72
2023/09/05 10:27:11;;;;;;;2.73;2.03;;;23.70;71.40;;;;;;20754705;28;20205;-73
2023/09/05 10:37:48;;;;;;;5.70;2.23;;;23.90;70.70;;;;;;20752346;28;20233;-72
2023/09/05 10:47:50;;;;;;;3.23;2.10;;;24.00;69.80;;;;;;20729884;28;20213;-72
2023/09/05 10:57:52;;;;;;;2.40;2.20;;;24.20;68.80;;;;;;20751923;28;20268;-72
2023/09/05 11:07:55;;;;;;;3.40;2.13;;;24.30;68.00;;;;;;20750842;28;20208;-72
2023/09/05 11:18:05;;;;;;;3.47;2.20;;;24.40;67.40;;;;;;20750100;28;20233;-72
2023/09/05 11:28:08;;;;;;;3.27;1.93;;;24.60;66.30;;;;;;20749956;28;20680;-72
2023/09/05 11:38:10;;;;;;;2.70;1.80;;;24.70;64.90;;;;;;20748679;28;20247;-73
2023/09/05 11:48:16;;;;;;;2.72;1.90;;;24.90;63.90;;;;;;20747605;28;20317;-72
2023/09/05 11:58:19;;;;;;;2.78;2.00;;;25.10;62.40;;;;;;20748109;28;20237;-73
2023/09/05 12:08:21;;;;;;;3.90;2.13;;;25.40;61.50;;;;;;20742285;28;20579;-73
2023/09/05 12:18:37;;;;;;;2.78;1.90;;;25.70;61.40;;;;;;20802469;28;20236;-73
2023/09/05 12:28:52;;;;;;;4.88;2.20;;;26.00;61.00;;;;;;20828779;28;20232;-73
2023/09/05 12:38:54;;;;;;;2.15;1.80;;;;;;;;;;20810292;28;20254;-73
2023/09/05 12:48:56;;;;;;;2.70;2.03;;;;;;;;;;20786005;28;20596;-72
2023/09/05 12:58:59;;;;;;;3.45;2.03;;;;;;;;;;20756990;28;20240;-72
2023/09/05 13:09:01;;;;;;;4.97;1.88;;;;;;;;;;20759848;28;20580;-72
2023/09/05 13:19:03;;;;;;;6.80;1.70;;;;;;;;;;20759061;28;20763;-73
2023/09/05 13:29:06;;;;;;;5.28;2.00;;;;;;;;;;20759076;28;20683;-73
2023/09/05 13:39:09;;;;;;;3.58;1.85;;;;;;;;;;20757843;28;20237;-73
2023/09/05 13:49:11;;;;;;;2.45;1.92;;;;;;;;;;20756801;28;20773;-73
2023/09/05 13:59:13;;;;;;;2.92;1.88;;;;;;;;;;20756019;28;20240;-73
2023/09/05 14:09:16;;;;;;;14.75;2.40;;;;;;;;;;20755853;28;20296;-73
2023/09/05 14:19:18;;;;;;;3.00;1.75;;;;;;;;;;20754572;28;20599;-73
2023/09/05 14:29:20;;;;;;;4.82;1.60;;;;;;;;;;20753896;28;20213;-74
2023/09/05 14:39:22;;;;;;;2.72;1.90;;;;;;;;;;20753614;28;20304;-74
2023/09/05 14:49:25;;;;;;;5.25;1.90;;;;;;;;;;20782997;28;20241;-74
2023/09/05 14:59:27;;;;;;;2.08;1.65;;;;;;;;;;20751449;28;20239;-74
2023/09/05 15:09:30;;;;;;;4.88;2.15;;;26.20;60.40;;;;;;20751480;28;20220;-73
2023/09/05 15:19:32;;;;;;;6.07;5.15;;;30.20;51.50;;;;;;20749624;28;20237;-74
2023/09/05 15:29:34;;;;;;;2.80;1.90;;;;;;;;;;20749621;28;20205;-74
2023/09/05 15:39:36;;;;;;;3.03;2.15;;;30.00;51.30;;;;;;20760130;28;20688;-73
2023/09/05 15:49:37;;;;;;;3.33;1.77;;;28.40;53.30;;;;;;20748423;28;20272;-73
2023/09/05 15:59:43;;;;;;;2.50;1.77;;;27.90;54.20;;;;;;20747939;28;20232;-74
2023/09/05 16:09:45;;;;;;;4.60;4.03;;;27.60;54.80;;;;;;20747922;28;20300;-73
2023/09/05 16:19:51;;;;;;;2.75;1.92;;;27.20;55.10;;;;;;20757950;28;20237;-74
2023/09/05 16:29:54;;;;;;;2.28;1.80;;;;;;;;;;20754418;28;20213;-73
2023/09/05 16:39:56;;;;;;;5.72;1.70;;;;;;;;;;20763043;28;20237;-74
2023/09/05 16:49:58;;;;;;;3.17;2.03;;;27.20;55.50;;;;;;20761593;28;20229;-69
2023/09/05 16:59:59;;;;;;;3.60;1.95;;;27.50;55.10;;;;;;20760935;28;20249;-81
2023/09/05 17:10:01;;;;;;;2.05;1.85;;;27.00;56.00;;;;;;20761003;28;20241;-78
2023/09/05 17:20:03;;;;;;;3.83;2.40;;;26.50;56.80;;;;;;20759917;28;20320;-82
2023/09/05 17:30:06;;;;;;;4.32;2.40;;;26.20;57.50;;;;;;20760003;28;20567;-72
2023/09/05 17:40:09;;;;;;;4.75;2.03;;;25.90;58.10;;;;;;20761815;28;20287;-74
2023/09/05 17:50:11;;;;;;;3.10;1.87;;;25.60;58.90;;;;;;20758311;28;20328;-73
2023/09/05 18:00:14;;;;;;;2.83;2.13;;;25.30;59.40;;;;;;20744258;28;20234;-72
2023/09/05 18:10:16;;;;;;;3.60;2.10;;;25.10;60.30;;;;;;20674899;28;20719;-72
2023/09/05 18:20:18;;;;;;;2.83;2.20;;;24.80;61.00;;;;;;20702161;28;20239;-73
2023/09/05 18:30:19;;;;;;;8.50;2.33;;;24.50;61.70;;;;;;20694984;28;20221;-72
2023/09/05 18:40:21;;;;;;;2.90;2.23;;;24.30;62.60;;;;;;20672073;28;20238;-73
2023/09/05 18:50:23;;;;;;;3.90;2.60;;;24.10;63.30;;;;;;20692451;28;20233;-71
2023/09/05 19:00:25;;;;;;;22.70;4.83;;;23.80;64.00;;;;;;20751018;28;20225;-74
2023/09/05 19:10:29;;;;;;;4.23;2.60;;;23.50;65.10;;;;;;20770768;28;20635;-73
2023/09/05 19:20:31;;;;;;;5.20;2.40;;;23.30;66.00;;;;;;20786955;28;20260;-73
2023/09/05 19:30:33;;;;;;;6.30;2.80;;;23.10;67.20;;;;;;20783000;28;20547;-72
2023/09/05 19:40:35;;;;;;;5.10;2.43;;;22.80;68.70;;;;;;20782831;28;20209;-73
2023/09/05 19:50:37;;;;;;;6.17;2.80;;;22.50;70.90;;;;;;20774842;28;20240;-73
2023/09/05 20:00:38;;;;;;;6.53;2.90;;;22.30;72.70;;;;;;20770360;28;20212;-71
2023/09/05 20:10:40;;;;;;;6.10;3.10;;;22.00;74.70;;;;;;20785784;28;20216;-71
2023/09/05 20:20:53;;;;;;;4.13;3.00;;;21.70;76.50;;;;;;20766338;28;20210;-70
2023/09/05 20:30:57;;;;;;;5.23;2.83;;;21.50;78.00;;;;;;20785482;28;20559;-71
2023/09/05 20:41:00;;;;;;;3.80;3.00;;;21.30;79.50;;;;;;20781728;28;20208;-71
2023/09/05 20:51:02;;;;;;;9.70;3.70;;;21.20;80.90;;;;;;20781653;28;20241;-71
2023/09/05 21:01:03;;;;;;;4.70;3.00;;;20.90;82.70;;;;;;20788833;28;20571;-71
2023/09/05 21:11:06;;;;;;;5.83;2.90;;;20.70;84.80;;;;;;20760660;28;20229;-70
2023/09/05 21:21:09;;;;;;;7.07;3.00;;;20.40;87.30;;;;;;20756969;28;20567;-70
2023/09/05 21:31:12;;;;;;;7.87;3.50;;;20.20;89.20;;;;;;20758795;28;20229;-71
2023/09/05 21:41:14;;;;;;;6.03;3.60;;;20.00;90.50;;;;;;20755203;28;20241;-70
2023/09/05 21:51:15;;;;;;;6.53;3.20;;;19.90;91.30;;;;;;20759902;28;20237;-70
2023/09/05 22:01:18;;;;;;;4.37;3.20;;;19.80;92.00;;;;;;20838382;28;20200;-70
2023/09/05 22:11:20;;;;;;;6.50;2.80;;;19.70;92.70;;;;;;20837997;28;20696;-70
2023/09/05 22:21:24;;;;;;;5.07;3.07;;;19.60;93.30;;;;;;20836850;28;20211;-70
2023/09/05 22:31:27;;;;;;;4.83;3.10;;;19.40;93.90;;;;;;20836168;28;20657;-71
2023/09/05 22:41:28;;;;;;;7.07;2.90;;;19.20;94.50;;;;;;20835662;28;20205;-70
2023/09/05 22:51:30;;;;;;;5.70;3.10;;;19.00;95.00;;;;;;20828969;28;20728;-71
2023/09/05 23:01:32;;;;;;;4.80;3.00;;;18.90;95.60;;;;;;20751832;28;20723;-70
2023/09/05 23:11:33;;;;;;;9.63;3.60;;;18.80;96.00;;;;;;20751597;28;20233;-71
2023/09/05 23:21:35;;;;;;;5.07;3.30;;;18.70;96.40;;;;;;20750560;28;20212;-70
2023/09/05 23:31:38;;;;;;;4.53;3.43;;;18.60;96.60;;;;;;20749918;28;20238;-71
2023/09/05 23:41:40;;;;;;;5.60;3.27;;;18.50;97.00;;;;;;20761803;28;20711;-70
2023/09/05 23:51:42;;;;;;;4.13;3.30;;;18.40;97.20;;;;;;20755132;28;20331;-69
